createdAt,value
2019-05-23T00:02:10.807Z,12.40
2019-05-23T00:05:10.230Z,12.40
2019-05-23T00:08:00.747Z,12.30
2019-05-23T00:10:55.867Z,12.30
2019-05-23T00:13:49.410Z,12.20
2019-05-23T00:16:23.501Z,12.20
2019-05-23T00:18:56.297Z,12.20
2019-05-23T00:21:27.367Z,12.20
2019-05-23T00:24:00.162Z,12.20
2019-05-23T00:26:31.261Z,12.10
2019-05-23T00:29:09.991Z,12.10
2019-05-23T00:31:39.847Z,12.20
2019-05-23T00:34:11.602Z,12.10
2019-05-23T00:36:43.737Z,12.20
2019-05-23T00:39:17.052Z,12.20
2019-05-23T00:41:48.813Z,12.20
2019-05-23T00:44:19.943Z,12.20
2019-05-23T00:46:50.939Z,12.20
2019-05-23T00:49:21.954Z,12.20
2019-05-23T00:51:53.405Z,12.20
2019-05-23T00:54:24.379Z,12.20
2019-05-23T00:56:54.761Z,12.20
2019-05-23T00:59:27.553Z,12.20
2019-05-23T01:01:57.910Z,12.30
2019-05-23T01:04:29.674Z,12.30
2019-05-23T01:07:00.082Z,12.40
2019-05-23T01:09:32.681Z,12.50
2019-05-23T01:12:05.268Z,12.60
2019-05-23T01:14:35.483Z,12.70
2019-05-23T01:17:07.211Z,12.80
2019-05-23T01:19:37.826Z,12.90
2019-05-23T01:22:09.979Z,13.00
2019-05-23T01:24:42.371Z,13.00
2019-05-23T01:27:14.240Z,13.00
2019-05-23T01:29:50.172Z,13.10
2019-05-23T01:32:36.744Z,13.10
2019-05-23T01:35:08.883Z,13.10
2019-05-23T01:37:39.463Z,13.10
2019-05-23T01:40:11.634Z,13.10
2019-05-23T01:42:42.180Z,13.10
2019-05-23T01:45:14.260Z,13.10
2019-05-23T01:47:45.337Z,13.10
2019-05-23T01:50:18.202Z,13.10
2019-05-23T01:52:49.350Z,13.00
2019-05-23T01:55:21.363Z,12.90
2019-05-23T01:57:52.401Z,12.90
2019-05-23T02:00:26.790Z,12.80
2019-05-23T02:02:58.041Z,12.70
2019-05-23T02:05:28.663Z,12.70
2019-05-23T02:07:58.900Z,12.60
2019-05-23T02:10:30.161Z,12.50
2019-05-23T02:13:01.205Z,12.50
2019-05-23T02:15:31.284Z,12.40
2019-05-23T02:18:02.542Z,12.40
2019-05-23T02:20:33.608Z,12.40
2019-05-23T02:23:04.520Z,12.30
2019-05-23T02:25:36.473Z,12.20
2019-05-23T02:28:08.407Z,12.30
2019-05-23T02:30:40.377Z,12.30
2019-05-23T02:33:12.537Z,12.30
2019-05-23T02:35:43.203Z,12.20
2019-05-23T02:38:31.772Z,12.20
2019-05-23T02:41:13.430Z,12.20
2019-05-23T02:43:48.852Z,12.20
2019-05-23T02:46:33.520Z,12.20
2019-05-23T02:49:07.327Z,12.20
2019-05-23T02:51:39.508Z,12.30
2019-05-23T02:54:12.316Z,12.20
2019-05-23T02:56:43.475Z,12.30
2019-05-23T02:59:23.802Z,12.20
2019-05-23T03:02:32.825Z,12.20
2019-05-23T03:05:07.454Z,12.20
2019-05-23T03:07:40.014Z,12.10
2019-05-23T03:10:11.025Z,12.10
2019-05-23T03:12:43.903Z,12.00
2019-05-23T03:15:15.831Z,12.00
2019-05-23T03:17:51.781Z,11.90
2019-05-23T03:20:23.925Z,11.90
2019-05-23T03:23:12.679Z,11.80
2019-05-23T03:26:21.333Z,11.80
2019-05-23T03:28:52.372Z,11.70
2019-05-23T03:31:47.865Z,11.60
2019-05-23T03:34:22.181Z,11.70
2019-05-23T03:36:53.101Z,11.70
2019-05-23T03:39:24.749Z,11.60
2019-05-23T03:41:56.271Z,11.60
2019-05-23T03:44:29.162Z,11.70
2019-05-23T03:46:59.509Z,11.60
2019-05-23T03:49:31.180Z,11.60
2019-05-23T03:52:04.241Z,11.60
2019-05-23T03:54:36.635Z,11.60
2019-05-23T03:57:08.711Z,11.60
2019-05-23T03:59:40.450Z,11.60
2019-05-23T04:02:13.081Z,11.60
2019-05-23T04:04:43.629Z,11.60
2019-05-23T04:07:15.083Z,11.60
2019-05-23T04:09:46.439Z,11.50
2019-05-23T04:12:16.565Z,11.50
2019-05-23T04:14:47.332Z,11.60
2019-05-23T04:17:18.127Z,11.60
2019-05-23T04:19:48.888Z,11.60
2019-05-23T04:22:19.656Z,11.60
2019-05-23T04:24:49.795Z,11.60
2019-05-23T04:27:21.001Z,11.60
2019-05-23T04:29:51.694Z,11.70
2019-05-23T04:32:22.330Z,11.70
2019-05-23T04:34:52.766Z,11.70
2019-05-23T04:37:22.819Z,11.80
2019-05-23T04:39:53.198Z,11.90
2019-05-23T04:42:23.625Z,11.90
2019-05-23T04:44:53.745Z,11.90
2019-05-23T04:47:24.718Z,11.90
2019-05-23T04:49:55.297Z,12.00
2019-05-23T04:52:25.558Z,12.10
2019-05-23T04:54:55.834Z,12.20
2019-05-23T04:57:28.486Z,12.20
2019-05-23T04:59:59.661Z,12.30
2019-05-23T05:02:30.978Z,12.40
2019-05-23T05:05:02.028Z,12.50
2019-05-23T05:07:32.542Z,12.60
2019-05-23T05:10:03.643Z,12.70
2019-05-23T05:12:34.766Z,12.70
2019-05-23T05:15:05.109Z,12.70
2019-05-23T05:17:35.378Z,12.80
2019-05-23T05:20:07.513Z,12.80
2019-05-23T05:22:38.013Z,12.80
2019-05-23T05:25:08.653Z,12.80
2019-05-23T05:27:39.113Z,12.90
2019-05-23T05:30:09.801Z,12.90
2019-05-23T05:32:44.895Z,13.00
2019-05-23T05:35:12.582Z,13.10
2019-05-23T05:37:43.730Z,13.00
2019-05-23T05:40:14.828Z,13.10
2019-05-23T05:42:45.967Z,13.20
2019-05-23T05:45:16.959Z,13.20
2019-05-23T05:47:47.491Z,13.30
2019-05-23T05:50:18.683Z,13.30
2019-05-23T05:52:49.339Z,13.50
2019-05-23T05:55:19.517Z,13.60
2019-05-23T05:57:50.480Z,13.70
2019-05-23T06:00:39.092Z,13.80
2019-05-23T06:03:10.078Z,13.80
2019-05-23T06:05:48.479Z,13.90
2019-05-23T06:08:19.344Z,13.90
2019-05-23T06:10:49.903Z,13.90
2019-05-23T06:13:20.343Z,14.00
2019-05-23T06:15:52.701Z,14.10
2019-05-23T06:18:23.805Z,14.10
2019-05-23T06:20:55.558Z,14.30
2019-05-23T06:23:26.652Z,14.50
2019-05-23T06:25:56.739Z,14.60
2019-05-23T06:28:27.773Z,14.60
2019-05-23T06:30:58.050Z,14.70
2019-05-23T06:33:28.620Z,14.80
2019-05-23T06:35:58.887Z,14.90
2019-05-23T06:38:30.720Z,14.90
2019-05-23T06:41:01.598Z,15.00
2019-05-23T06:43:34.077Z,15.20
2019-05-23T06:46:04.944Z,15.40
2019-05-23T06:48:35.415Z,15.50
2019-05-23T06:51:05.545Z,15.70
2019-05-23T06:53:35.929Z,15.60
2019-05-23T06:56:08.308Z,15.60
2019-05-23T06:58:38.479Z,15.70
2019-05-23T07:01:08.700Z,15.70
2019-05-23T07:03:42.928Z,15.80
2019-05-23T07:06:13.641Z,15.90
2019-05-23T07:08:43.983Z,16.00
2019-05-23T07:11:14.866Z,16.20
2019-05-23T07:13:46.478Z,16.30
2019-05-23T07:16:16.982Z,16.40
2019-05-23T07:18:47.382Z,16.50
2019-05-23T07:21:18.045Z,16.70
2019-05-23T07:23:48.197Z,16.80
2019-05-23T07:26:18.879Z,16.80
2019-05-23T07:28:49.425Z,16.90
2019-05-23T07:31:20.419Z,17.10
2019-05-23T07:34:00.892Z,17.10
2019-05-23T07:36:22.368Z,17.20
2019-05-23T07:38:52.424Z,17.20
2019-05-23T07:41:22.582Z,17.30
2019-05-23T07:43:53.122Z,17.40
2019-05-23T07:46:23.345Z,17.50
2019-05-23T07:48:53.551Z,17.60
2019-05-23T07:51:23.673Z,17.70
2019-05-23T07:54:13.503Z,17.80
2019-05-23T07:56:45.229Z,17.80
2019-05-23T07:59:15.315Z,17.90
2019-05-23T08:01:50.744Z,18.00
2019-05-23T08:04:22.510Z,18.10
2019-05-23T08:06:52.729Z,18.10
2019-05-23T08:09:24.511Z,18.20
2019-05-23T08:11:54.910Z,18.30
2019-05-23T08:14:25.209Z,18.20
2019-05-23T08:16:55.397Z,18.10
2019-05-23T08:19:26.225Z,18.10
2019-05-23T08:21:56.507Z,18.10
2019-05-23T08:24:26.999Z,18.30
2019-05-23T08:26:57.478Z,18.60
2019-05-23T08:29:27.875Z,18.80
2019-05-23T08:31:59.330Z,19.10
2019-05-23T08:34:41.536Z,19.20
2019-05-23T08:37:04.358Z,19.50
2019-05-23T08:39:36.151Z,19.50
2019-05-23T08:42:08.396Z,19.50
2019-05-23T08:44:39.001Z,19.60
2019-05-23T08:47:10.982Z,19.30
2019-05-23T08:49:41.375Z,19.20
2019-05-23T08:52:11.852Z,19.30
2019-05-23T08:54:43.599Z,19.60
2019-05-23T08:57:15.667Z,19.50
2019-05-23T08:59:47.469Z,19.60
2019-05-23T09:02:17.970Z,19.80
2019-05-23T09:05:03.670Z,19.90
2019-05-23T09:07:21.148Z,19.80
2019-05-23T09:09:51.527Z,19.60
2019-05-23T09:12:21.662Z,19.80
2019-05-23T09:14:52.814Z,19.90
2019-05-23T09:17:23.956Z,20.10
2019-05-23T09:19:54.130Z,20.40
2019-05-23T09:22:24.858Z,20.60
2019-05-23T09:24:55.001Z,20.80
2019-05-23T09:27:25.114Z,20.60
2019-05-23T09:29:55.441Z,20.50
2019-05-23T09:32:25.613Z,20.30
2019-05-23T09:34:56.285Z,20.20
2019-05-23T09:37:26.457Z,20.30
2019-05-23T09:39:57.571Z,20.50
2019-05-23T09:42:27.696Z,20.60
2019-05-23T09:44:58.798Z,20.80
2019-05-23T09:47:29.060Z,20.80
2019-05-23T09:49:59.376Z,20.70
2019-05-23T09:52:32.318Z,20.90
2019-05-23T09:55:02.549Z,20.90
2019-05-23T09:57:33.234Z,20.90
2019-05-23T10:00:03.929Z,20.80
2019-05-23T10:02:34.849Z,20.80
2019-05-23T10:05:07.046Z,21.00
2019-05-23T10:07:37.211Z,21.30
2019-05-23T10:10:08.873Z,21.60
2019-05-23T10:12:39.319Z,21.60
2019-05-23T10:15:12.345Z,21.40
2019-05-23T10:17:42.678Z,21.60
2019-05-23T10:20:13.321Z,21.80
2019-05-23T10:22:43.590Z,21.90
2019-05-23T10:25:14.281Z,21.90
2019-05-23T10:27:45.794Z,21.80
2019-05-23T10:30:18.239Z,21.90
2019-05-23T10:32:48.361Z,21.40
2019-05-23T10:35:19.127Z,21.60
2019-05-23T10:37:49.308Z,21.90
2019-05-23T10:40:20.454Z,22.20
2019-05-23T10:42:50.826Z,22.50
2019-05-23T10:45:22.270Z,22.60
2019-05-23T10:47:52.376Z,22.70
2019-05-23T10:50:22.499Z,22.90
2019-05-23T10:52:52.795Z,23.00
2019-05-23T10:55:22.969Z,23.00
2019-05-23T10:57:53.160Z,23.00
2019-05-23T11:00:26.036Z,23.10
2019-05-23T11:02:56.617Z,23.20
2019-05-23T11:05:27.004Z,23.40
2019-05-23T11:07:58.053Z,23.50
2019-05-23T11:10:28.654Z,23.70
2019-05-23T11:12:58.820Z,23.80
2019-05-23T11:15:29.063Z,23.50
2019-05-23T11:17:59.399Z,23.20
2019-05-23T11:20:29.543Z,23.50
2019-05-23T11:23:03.462Z,23.70
2019-05-23T11:25:32.946Z,23.90
2019-05-23T11:28:03.175Z,23.90
2019-05-23T11:30:52.010Z,23.90
2019-05-23T11:33:22.692Z,24.00
2019-05-23T11:35:54.515Z,24.00
2019-05-23T11:38:24.997Z,23.90
2019-05-23T11:40:55.131Z,23.80
2019-05-23T11:43:25.620Z,23.80
2019-05-23T11:46:00.343Z,23.70
2019-05-23T11:48:31.132Z,23.90
2019-05-23T11:51:01.980Z,24.00
2019-05-23T11:53:32.720Z,24.10
2019-05-23T11:56:02.858Z,24.10
2019-05-23T11:58:33.334Z,24.30
2019-05-23T12:01:40.417Z,24.30
2019-05-23T12:04:16.136Z,24.20
2019-05-23T12:06:56.602Z,24.30
2019-05-23T12:09:27.132Z,24.30
2019-05-23T12:11:57.308Z,24.50
2019-05-23T12:14:27.434Z,24.80
2019-05-23T12:16:58.818Z,25.00
2019-05-23T12:19:29.615Z,25.20
2019-05-23T12:21:59.702Z,25.00
2019-05-23T12:24:34.798Z,24.80
2019-05-23T12:27:02.288Z,24.20
2019-05-23T12:29:32.393Z,23.90
2019-05-23T12:32:04.462Z,24.00
2019-05-23T12:34:34.639Z,24.20
2019-05-23T12:37:18.455Z,24.10
2019-05-23T12:39:37.124Z,24.30
2019-05-23T12:42:07.603Z,24.30
2019-05-23T12:44:38.095Z,24.40
2019-05-23T12:47:14.124Z,24.60
2019-05-23T12:49:49.839Z,24.70
2019-05-23T12:52:20.668Z,24.60
2019-05-23T12:54:50.776Z,24.60
2019-05-23T12:57:20.949Z,24.70
2019-05-23T12:59:52.114Z,24.80
2019-05-23T13:02:25.411Z,24.80
2019-05-23T13:04:55.582Z,25.00
2019-05-23T13:07:35.936Z,25.00
2019-05-23T13:09:58.995Z,25.00
2019-05-23T13:12:29.646Z,25.10
2019-05-23T13:15:00.138Z,24.70
2019-05-23T13:17:30.319Z,24.30
2019-05-23T13:20:00.493Z,24.10
2019-05-23T13:22:30.856Z,24.10
2019-05-23T13:25:01.048Z,24.30
2019-05-23T13:27:31.785Z,24.70
2019-05-23T13:30:02.007Z,25.00
2019-05-23T13:32:32.388Z,24.90
2019-05-23T13:35:02.488Z,24.90
2019-05-23T13:37:32.914Z,25.00
2019-05-23T13:40:03.408Z,25.30
2019-05-23T13:42:35.370Z,25.50
2019-05-23T13:45:06.549Z,25.70
2019-05-23T13:47:37.061Z,26.00
2019-05-23T13:50:07.921Z,26.40
2019-05-23T13:52:38.689Z,26.90
2019-05-23T13:55:09.738Z,26.60
2019-05-23T13:57:40.402Z,26.20
2019-05-23T14:00:12.574Z,25.50
2019-05-23T14:02:42.786Z,24.80
2019-05-23T14:05:18.761Z,24.50
2019-05-23T14:07:46.389Z,24.50
2019-05-23T14:10:16.896Z,24.50
2019-05-23T14:12:47.439Z,24.30
2019-05-23T14:15:20.345Z,24.20
2019-05-23T14:17:50.599Z,24.50
2019-05-23T14:20:21.156Z,25.60
2019-05-23T14:23:00.170Z,26.90
2019-05-23T14:25:30.716Z,27.80
2019-05-23T14:28:04.787Z,27.60
2019-05-23T14:30:57.174Z,27.30
2019-05-23T14:33:45.676Z,26.40
2019-05-23T14:36:31.906Z,25.10
2019-05-23T14:39:02.455Z,25.00
2019-05-23T14:41:45.389Z,24.80
2019-05-23T14:44:13.443Z,24.70
2019-05-23T14:46:54.367Z,24.80
2019-05-23T14:49:31.034Z,25.10
2019-05-23T14:52:05.681Z,26.20
2019-05-23T14:54:47.194Z,26.80
2019-05-23T14:57:18.287Z,26.30
2019-05-23T14:59:49.323Z,25.20
2019-05-23T15:02:21.054Z,24.20
2019-05-23T15:04:51.213Z,24.50
2019-05-23T15:07:21.550Z,26.20
2019-05-23T15:09:51.722Z,28.00
2019-05-23T15:12:22.372Z,28.80
2019-05-23T15:14:52.563Z,29.50
2019-05-23T15:17:22.754Z,28.80
2019-05-23T15:19:52.818Z,29.20
2019-05-23T15:22:23.140Z,30.30
2019-05-23T15:24:53.836Z,31.10
2019-05-23T15:27:23.946Z,31.90
2019-05-23T15:29:54.478Z,31.90
2019-05-23T15:32:24.780Z,31.70
2019-05-23T15:34:55.034Z,32.20
2019-05-23T15:37:25.652Z,31.70
2019-05-23T15:39:55.776Z,30.90
2019-05-23T15:42:26.259Z,30.10
2019-05-23T15:44:56.330Z,29.70
2019-05-23T15:47:30.135Z,29.50
2019-05-23T15:50:05.731Z,28.80
2019-05-23T15:52:49.020Z,27.90
2019-05-23T15:55:40.563Z,26.70
2019-05-23T15:58:22.266Z,25.70
2019-05-23T16:01:00.588Z,25.40
2019-05-23T16:03:37.274Z,25.20
2019-05-23T16:06:09.115Z,25.00
2019-05-23T16:08:39.888Z,25.30
2019-05-23T16:11:10.921Z,26.00
2019-05-23T16:13:41.526Z,26.20
2019-05-23T16:16:11.666Z,26.00
2019-05-23T16:18:42.392Z,25.50
2019-05-23T16:21:13.641Z,25.40
2019-05-23T16:23:44.157Z,26.20
2019-05-23T16:26:14.632Z,27.50
2019-05-23T16:28:45.143Z,28.70
2019-05-23T16:31:15.272Z,29.50
2019-05-23T16:33:46.017Z,28.90
2019-05-23T16:36:16.450Z,28.30
2019-05-23T16:38:47.016Z,28.60
2019-05-23T16:41:17.645Z,28.60
2019-05-23T16:43:47.950Z,28.70
2019-05-23T16:46:18.116Z,28.60
2019-05-23T16:48:48.942Z,27.90
2019-05-23T16:51:19.519Z,27.40
2019-05-23T16:53:50.284Z,27.50
2019-05-23T16:56:29.647Z,26.90
2019-05-23T16:59:05.819Z,26.20
2019-05-23T17:01:55.616Z,25.90
2019-05-23T17:04:22.345Z,25.50
2019-05-23T17:07:14.575Z,24.90
2019-05-23T17:10:07.797Z,24.60
2019-05-23T17:12:45.757Z,24.20
2019-05-23T17:15:48.203Z,24.00
2019-05-23T17:18:37.381Z,23.70
2019-05-23T17:21:24.047Z,23.40
2019-05-23T17:24:13.267Z,23.20
2019-05-23T17:27:04.739Z,23.00
2019-05-23T17:29:41.917Z,22.90
2019-05-23T17:32:13.841Z,23.10
2019-05-23T17:34:44.245Z,23.20
2019-05-23T17:37:16.123Z,23.20
2019-05-23T17:39:46.718Z,23.20
2019-05-23T17:42:17.952Z,22.80
2019-05-23T17:44:48.507Z,22.50
2019-05-23T17:47:18.663Z,22.50
2019-05-23T17:49:48.981Z,22.50
2019-05-23T17:52:19.340Z,22.40
2019-05-23T17:54:49.539Z,22.20
2019-05-23T17:57:20.478Z,22.20
2019-05-23T17:59:50.588Z,22.20
2019-05-23T18:02:21.788Z,22.20
2019-05-23T18:04:52.574Z,22.20
2019-05-23T18:07:23.336Z,22.10
2019-05-23T18:09:53.460Z,22.10
2019-05-23T18:12:23.564Z,22.20
2019-05-23T18:14:54.069Z,22.10
2019-05-23T18:17:24.665Z,22.10
2019-05-23T18:19:55.655Z,22.10
2019-05-23T18:22:26.311Z,22.00
2019-05-23T18:24:59.802Z,21.90
2019-05-23T18:27:28.933Z,21.90
2019-05-23T18:30:00.696Z,21.80
2019-05-23T18:32:31.365Z,21.70
2019-05-23T18:35:03.214Z,21.60
2019-05-23T18:37:33.604Z,21.60
2019-05-23T18:40:05.366Z,21.50
2019-05-23T18:42:35.929Z,21.40
2019-05-23T18:45:07.598Z,21.30
2019-05-23T18:47:40.871Z,21.20
2019-05-23T18:50:13.093Z,21.10
2019-05-23T18:52:43.248Z,21.10
2019-05-23T18:55:14.021Z,21.00
2019-05-23T18:57:44.717Z,21.00
2019-05-23T19:00:15.787Z,20.90
2019-05-23T19:02:46.244Z,20.80
2019-05-23T19:05:17.231Z,20.70
2019-05-23T19:07:47.761Z,20.70
2019-05-23T19:10:19.155Z,20.60
2019-05-23T19:12:49.500Z,20.60
2019-05-23T19:15:19.772Z,20.50
2019-05-23T19:17:50.325Z,20.50
2019-05-23T19:20:20.886Z,20.40
2019-05-23T19:22:51.373Z,20.50
2019-05-23T19:25:22.581Z,20.50
2019-05-23T19:27:53.099Z,20.40
2019-05-23T19:30:23.367Z,20.40
2019-05-23T19:32:53.903Z,20.40
2019-05-23T19:35:24.810Z,20.30
2019-05-23T19:37:54.963Z,20.30
2019-05-23T19:40:25.284Z,20.20
2019-05-23T19:42:55.496Z,20.20
2019-05-23T19:45:25.800Z,20.20
2019-05-23T19:47:56.089Z,20.10
2019-05-23T19:50:27.020Z,20.00
2019-05-23T19:52:57.533Z,19.90
2019-05-23T19:55:28.265Z,19.80
2019-05-23T19:57:58.932Z,19.70
2019-05-23T20:00:30.889Z,19.60
2019-05-23T20:03:03.859Z,19.50
2019-05-23T20:05:35.826Z,19.50
2019-05-23T20:08:06.584Z,19.40
2019-05-23T20:10:37.576Z,19.50
2019-05-23T20:13:08.623Z,19.40
2019-05-23T20:15:39.509Z,19.40
2019-05-23T20:18:11.261Z,19.30
2019-05-23T20:20:41.883Z,19.30
2019-05-23T20:23:15.465Z,19.30
2019-05-23T20:25:44.580Z,19.20
2019-05-23T20:28:14.863Z,19.20
2019-05-23T20:30:52.358Z,19.20
2019-05-23T20:33:22.653Z,19.20
2019-05-23T20:35:52.821Z,19.20
2019-05-23T20:38:22.975Z,19.20
2019-05-23T20:40:53.230Z,19.10
2019-05-23T20:43:23.484Z,19.10
2019-05-23T20:45:54.852Z,19.10
2019-05-23T20:48:25.777Z,19.10
2019-05-23T20:50:56.476Z,19.10
2019-05-23T20:53:26.570Z,19.00
2019-05-23T20:55:56.732Z,18.90
2019-05-23T20:58:26.798Z,18.90
2019-05-23T21:01:11.178Z,18.80
2019-05-23T21:03:41.239Z,18.80
2019-05-23T21:06:11.398Z,18.80
2019-05-23T21:08:42.008Z,18.70
2019-05-23T21:11:12.172Z,18.60
2019-05-23T21:13:42.262Z,18.50
2019-05-23T21:16:12.445Z,18.40
2019-05-23T21:18:42.516Z,18.30
2019-05-23T21:21:12.911Z,18.20
2019-05-23T21:23:43.649Z,18.00
2019-05-23T21:26:15.120Z,17.90
2019-05-23T21:28:45.327Z,17.80
2019-05-23T21:31:18.505Z,17.70
2019-05-23T21:33:48.733Z,17.70
2019-05-23T21:36:18.831Z,17.70
2019-05-23T21:38:49.587Z,17.60
2019-05-23T21:41:20.028Z,17.50
2019-05-23T21:43:52.149Z,17.40
2019-05-23T21:46:22.317Z,17.40
2019-05-23T21:48:52.808Z,17.30
2019-05-23T21:51:22.987Z,17.30
2019-05-23T21:53:53.619Z,17.30
2019-05-23T21:56:23.899Z,17.20
2019-05-23T21:58:54.042Z,17.20
2019-05-23T22:01:42.169Z,17.10
2019-05-23T22:04:26.549Z,17.10
2019-05-23T22:07:03.954Z,17.10
2019-05-23T22:09:35.480Z,17.00
2019-05-23T22:12:06.210Z,17.00
2019-05-23T22:14:36.673Z,16.90
2019-05-23T22:17:07.381Z,16.80
2019-05-23T22:19:37.572Z,16.70
2019-05-23T22:22:08.186Z,16.60
2019-05-23T22:24:38.981Z,16.60
2019-05-23T22:27:10.859Z,16.60
2019-05-23T22:29:41.336Z,16.50
2019-05-23T22:32:13.076Z,16.50
2019-05-23T22:34:51.169Z,16.40
2019-05-23T22:37:24.036Z,16.30
2019-05-23T22:39:54.132Z,16.30
2019-05-23T22:42:25.030Z,16.20
2019-05-23T22:44:55.279Z,16.20
2019-05-23T22:47:26.236Z,16.10
2019-05-23T22:49:56.289Z,16.10
2019-05-23T22:52:26.417Z,16.10
2019-05-23T22:54:56.520Z,16.00
2019-05-23T22:57:27.010Z,16.00
2019-05-23T22:59:57.144Z,15.90
2019-05-23T23:02:27.326Z,15.90
2019-05-23T23:04:57.772Z,15.90
2019-05-23T23:07:28.360Z,15.90
2019-05-23T23:09:58.568Z,15.80
2019-05-23T23:12:29.220Z,15.70
2019-05-23T23:14:59.384Z,15.70
2019-05-23T23:17:29.592Z,15.60
2019-05-23T23:19:59.748Z,15.60
2019-05-23T23:22:29.856Z,15.60
2019-05-23T23:25:00.017Z,15.60
2019-05-23T23:27:30.369Z,15.50
2019-05-23T23:30:00.536Z,15.40
2019-05-23T23:32:30.734Z,15.40
2019-05-23T23:35:00.803Z,15.40
2019-05-23T23:37:32.112Z,15.40
2019-05-23T23:40:02.560Z,15.40
2019-05-23T23:42:33.204Z,15.40
2019-05-23T23:45:21.200Z,15.30
2019-05-23T23:48:09.119Z,15.30
2019-05-23T23:50:56.897Z,15.20
2019-05-23T23:53:44.720Z,15.20
2019-05-23T23:56:33.872Z,15.10
2019-05-23T23:59:03.146Z,15.10
